x

8419317 - Wells, Me (welm1) Weather Station

7:30 - Tue 26th Jul 2016 All times are EDT. -4 hours from GMT.

  • Wind
    10mph, 15mph gusts
  • Sea Temp 63°f
  • Luft Temp 74°f
  • Sea Pressure 1007.1mb
  • 8419317 - Wells, Me
  • 8419317 - Wells, Me

More Historic Weather Station data

Upgrade to MSW Pro to gain access to the past 30 days of data for over 8000 Wavebouys and Weather Stations around the globe.

Join Pro

Comparision Forecast

View Surf forecast
   
Di 07/26 7:30 10 15 mph 1007.1mb 63f 74f
7:24 10 14 mph 1007.1mb 63f 74f
7:18 9 14 mph 1007.2mb 63f 74f
7:12 10 14 mph 1007.2mb 63f 73f
7:06 9 14 mph 1007.2mb 62f 73f
7:00 9 13 mph 1007.1mb 62f 73f
6:54 9 13 mph 1007.1mb 62f 73f
6:48 8 13 mph 1007mb 62f 73f
6:42 10 14 mph 1007mb 62f 72f
6:36 9 14 mph 1006.8mb 62f 72f
6:30 10 14 mph 1006.8mb 62f 72f
6:24 10 15 mph 1006.7mb 62f 72f
6:18 9 13 mph 1006.7mb 62f 72f
6:12 8 13 mph 1006.6mb 62f 71f
6:06 8 14 mph 1006.7mb 62f 71f
6:00 10 14 mph 1006.6mb 62f 71f
5:54 9 14 mph 1006.5mb 62f 71f
5:48 11 15 mph 1006.5mb 63f 71f
5:42 9 14 mph 1006.5mb 63f 71f
5:36 7 14 mph 1006.4mb 63f 71f
5:30 7 10 mph 1006.3mb 63f 71f
5:24 6 10 mph 1006.3mb 63f 70f
5:18 6 10 mph 1006.2mb 63f 71f
5:12 7 10 mph 1006.1mb 63f 71f
5:06 7 10 mph 1006.1mb 63f 71f
5:00 8 11 mph 1006.1mb 63f 71f
4:54 9 13 mph 1006mb 63f 71f
4:48 8 14 mph 1005.9mb 63f 71f
4:42 7 11 mph 1005.8mb 63f 71f
4:36 6 8 mph 1005.9mb 63f 70f
4:30 6 8 mph 1005.9mb 63f 70f
4:24 5 9 mph 1005.7mb 63f 69f
4:18 3 6 mph 1005.7mb 63f 69f
4:12 2 3 mph 1005.7mb 62f 68f
4:06  -  1 mph 1005.7mb 63f 67f
4:00 1 2 mph 1005.8mb 63f 67f
3:54 2 3 mph 1005.8mb 63f 68f
3:48 3
mph
1005.8mb 63f 69f
3:42 2 3 mph 1005.8mb 63f 68f
3:36  -  1 mph 1005.7mb 63f 68f
3:30  -  1 mph 1005.7mb 62f 68f
3:24  -  1 mph 1005.7mb 62f 68f
3:18  -  2 mph 1005.7mb 62f 68f
3:12 2 3 mph 1005.6mb 62f 69f
3:06 2 3 mph 1005.6mb 62f 68f
3:00  -  2 mph 1005.6mb 62f 69f
2:54 2 5 mph 1005.6mb 62f 69f
2:48 2 3 mph 1005.6mb 62f 69f
2:42  -  1 mph 1005.7mb 62f 68f
2:36  -  2 mph 1005.7mb 62f 69f
2:30 2
mph
1005.8mb 62f 68f
2:24  -  1 mph 1005.8mb 62f 69f
2:18 1
mph
1005.8mb 62f 69f
2:12  -  2 mph 1005.8mb 62f 69f
2:06 2
mph
1005.8mb 62f 69f
2:00 2
mph
1005.8mb 62f 69f
1:54 1 2 mph 1005.8mb 62f 69f
1:48 1 2 mph 1005.9mb 62f -
1:42 2 3 mph 1005.9mb 62f -
1:36 2 3 mph 1006mb 62f -
1:30 3 5 mph 1006mb 62f 69f
1:24 3 5 mph 1006mb 62f 69f
1:18 2 3 mph 1006mb 63f 69f
1:12 3
mph
1006mb 64f 69f
1:06 5 6 mph 1006mb 65f 70f
1:00 5 6 mph 1006mb 66f 70f
12:54 5
mph
1005.9mb 67f 70f
12:48 2 3 mph 1005.9mb 67f 71f
12:42 3 6 mph 1005.9mb 67f 71f
12:36 6
mph
1005.9mb 67f 71f
12:30 2 3 mph 1006.1mb 67f 71f
12:24 2
mph
1006.2mb 67f 71f
12:18  -  3 mph 1006.3mb 67f 71f
12:12 1 3 mph 1006.4mb 67f 71f
12:06 2 6 mph 1006.4mb 67f 71f
12:00 3 6 mph 1006.3mb 67f 71f
Mo 07/25 11:54 6 7 mph 1006.4mb 67f 71f
11:48 6 8 mph 1006.5mb 67f 71f
11:42 5 6 mph 1006.5mb 67f 71f
11:36 6 8 mph 1006.6mb 67f 71f
11:30 7
mph
1006.5mb 67f 71f
11:24 2
mph
1006.6mb 67f 71f
11:18  -  1 mph 1006.5mb 67f 71f
11:12 1 2 mph 1006.7mb 67f 71f
11:06 2
mph
1006.7mb 67f 71f
11:00 2 5 mph - 67f 71f
10:54 5 7 mph - 67f 71f
10:48 5 7 mph 1007.2mb - -
10:42 6 7 mph 1007.3mb - -
10:36  -  6 mph 1007.2mb - -
10:30 2 8 mph - 66f 71f
10:24 7 11 mph - 66f 71f
10:18 5 7 mph - 66f 71f
10:12 3
mph
- 66f 71f
10:06 5 6 mph - 66f 71f
10:00 3 5 mph - 66f 71f
9:54 3
mph
- 66f 71f
9:48 2 3 mph 1007.2mb 66f -
9:42 2 3 mph 1007mb 66f -
9:36 2 6 mph 1006.9mb 66f -
9:30 6 7 mph - 65f -
9:24 5 6 mph - 65f -
9:18 3
mph
- 65f 71f
9:12 3
mph
- 65f 71f
9:06 2 3 mph - 65f 71f
9:00 3 5 mph - 65f 71f
8:54 2 5 mph - 65f 71f
8:48 3 5 mph - - -
8:42 3 5 mph - - -
8:36  -  5 mph - - -
8:30 5 6 mph - 64f 71f
8:24 6
mph
- 64f 71f
8:18 2
mph
- 64f -
8:12  -  3 mph - 64f -
8:06 3 9 mph - 64f -
8:00  -  mph - 64f 71f
7:54  -  mph - 64f 71f
7:48 5 6 mph 1007.5mb - -
7:42 2 5 mph 1007.4mb - -
7:36 5 6 mph 1007.3mb - -
7:30  -  mph - 63f -
7:24  -  mph - 63f -
7:18 5 6 mph 1007.4mb 63f -
7:12 3 5 mph 1007.5mb 63f -
7:06 1 3 mph 1007.7mb 63f -
7:00  -  mph - 63f 73f
6:54  -  mph - 63f 73f
6:48 3
mph
1007.9mb 63f -
6:42 3 6 mph 1008mb 63f -
6:36 5
mph
1008mb 63f -
6:30 5
mph
1008mb 63f -
6:24 5 6 mph 1008.2mb 63f -
6:18 5 6 mph - 63f 72f
6:12 5 6 mph - 63f 72f
6:06 5 6 mph - 62f 72f
6:00  -  mph - 62f -
5:54  -  mph - 62f -
5:48  -  mph - 62f 72f
5:42  -  mph - 62f 72f
5:36  -  mph - 62f 71f
5:30 3 5 mph 1008.4mb 62f 71f
5:24 3 6 mph 1008.4mb 62f 71f
5:18 6
mph
1008.1mb 62f 71f
5:12 5 6 mph 1008.3mb 62f 71f
5:06 5 6 mph 1008.4mb 62f 71f
5:00 5 6 mph 1008.4mb 62f 71f
4:54 5 6 mph 1008.4mb 62f 70f
4:48 5 6 mph 1008.6mb 62f 70f
4:42 5 6 mph 1008.7mb 62f 70f
4:36 5
mph
1008.9mb 62f 71f
4:30 5 6 mph 1009.2mb 62f 71f
4:24 3 6 mph 1009.2mb 62f 71f
4:18 3 5 mph 1009.2mb 62f 71f
4:12 3 5 mph 1009.3mb 62f 71f
4:06 3 5 mph 1009.5mb 62f 71f
4:00 2 5 mph 1009.6mb 62f 70f
3:54 3 5 mph 1009.6mb 62f 70f
3:48 3 5 mph 1009.7mb 62f 70f
3:42 3 5 mph 1009.7mb 62f 70f
3:36 5
mph
1009.9mb 62f 70f
3:30 5 7 mph 1010mb 62f 70f
3:24 5 6 mph 1010.2mb 62f 70f
3:18 3 6 mph 1010.4mb 62f 71f
3:12 5 7 mph 1010.4mb 61f 71f
3:06 5 6 mph 1010.5mb 61f 71f
3:00 5 7 mph 1010.7mb 61f 71f
2:54 5 7 mph 1010.8mb 61f 70f
2:48 6 7 mph 1010.7mb 61f 69f
2:42 6 7 mph 1010.8mb 61f 70f
2:36 6 7 mph 1010.9mb 61f 70f
2:30 5 7 mph 1011mb 61f 71f
2:24 6 8 mph 1011mb 61f 71f
2:18 7 9 mph 1011mb 61f 70f
2:12 6 7 mph 1011.1mb 61f 71f
2:06 6 7 mph 1011.2mb 61f 71f
2:00 5 6 mph 1011.4mb 61f 72f
1:54 5 6 mph 1011.5mb 61f 71f
1:48 6 8 mph 1011.4mb 61f 71f
1:42 6 8 mph 1011.3mb 61f 70f
1:36 6 8 mph 1011.4mb 61f 70f
1:30 5 7 mph 1011.6mb 61f 70f
1:24 6 7 mph 1011.6mb 61f 71f
1:18 6 7 mph 1011.7mb 61f 71f
1:12 6 7 mph 1011.7mb 61f 71f
1:06 5 7 mph 1011.7mb 61f 71f
1:00 6 7 mph 1011.8mb 61f 70f
12:54 6 8 mph 1011.8mb 62f 69f
12:48 5 6 mph 1011.8mb 62f 69f
12:42 5 7 mph 1011.9mb 62f 69f
12:36 6 7 mph 1012mb 62f 68f
12:30 6 8 mph 1012.1mb 62f 68f
12:24 6 8 mph 1012.2mb 62f 69f
12:18 6 7 mph 1012.1mb 62f 69f
12:12 6 7 mph 1012.3mb 62f 69f
12:06 5 7 mph 1012.5mb 61f 71f
12:00 6 7 mph 1012.5mb 61f 71f
11:54 6 7 mph 1012.6mb 61f 71f
11:48 6 8 mph 1012.6mb 61f 71f
11:42 7 8 mph 1012.6mb 61f 71f
11:36 7 9 mph 1012.6mb 61f 71f
11:30 6 9 mph 1012.6mb 61f 71f
11:24 6 8 mph 1012.5mb 61f 71f
11:18 6 8 mph 1012.5mb 61f 71f
11:12 6 8 mph 1012.6mb 61f 71f
11:06 6 8 mph 1012.6mb 61f 71f
11:00 7 9 mph 1012.6mb 61f 71f
10:54 7 8 mph 1012.6mb 61f 71f
10:48 6 8 mph 1012.6mb 61f 72f
10:42 6 8 mph 1012.6mb 61f 72f
10:36 6 7 mph 1012.6mb 61f 72f
10:30 6 8 mph 1012.6mb 60f 73f
10:24 6 7 mph 1012.5mb 60f 73f
10:18 6 8 mph 1012.5mb 60f 72f
10:12 6 7 mph 1012.5mb 60f 73f
10:06 6 8 mph 1012.5mb 60f 73f
10:00 5 6 mph 1012.5mb 60f 73f
9:54 5 6 mph 1012.5mb 60f 73f
9:48 5 6 mph 1012.6mb 60f 73f
9:42 6
mph
1012.5mb 60f 72f
9:36 5 6 mph 1012.5mb 60f 72f
9:30 3 5 mph 1012.6mb 60f 73f
9:24 2 5 mph 1012.6mb 60f 72f
9:18 5 6 mph 1012.8mb 60f 71f
9:12 5 6 mph 1012.8mb 60f 71f
9:06 5 7 mph 1012.9mb 60f 71f
9:00 6
mph
1013mb 60f 70f
8:54 5 6 mph 1013.1mb 60f 70f
8:48 3 5 mph 1013.1mb 60f 69f
8:42 1 2 mph 1013.2mb 60f 69f
8:36 1 2 mph 1013.2mb 60f 68f
8:30 2
mph
1013.2mb 60f 68f
8:24 1 2 mph 1013.3mb 60f 68f
8:18 2 3 mph 1013.4mb 60f 67f
8:12 3
mph
1013.4mb 60f 67f
8:06 2 3 mph 1013.4mb 60f 67f
8:00 1 2 mph 1013.4mb 60f 66f
7:54 2
mph
1013.5mb 60f 66f
7:48 1 3 mph 1013.5mb 60f 66f
7:42 2 3 mph 1013.5mb 60f 65f
7:36 2 5 mph 1013.5mb 60f 65f
7:30 2 3 mph 1013.6mb 60f 65f
7:24  -  1 mph 1013.6mb 60f 65f
7:18 1 3 mph 1013.8mb 60f 65f
7:12 3 5 mph 1013.7mb 59f 65f
7:06 3 5 mph 1013.6mb 59f 65f
7:00 2
mph
1013.7mb 59f 64f
6:54  -  2 mph 1013.6mb 59f 64f
6:48 1 2 mph 1013.7mb 59f 64f
6:42  -  2 mph 1013.7mb 59f 65f
6:36 1 2 mph 1013.6mb 59f 64f
6:30 1 2 mph 1013.7mb 59f 64f
6:24 1 2 mph 1013.8mb 59f 64f
6:18 1 2 mph 1013.8mb 59f 64f
6:12 2
mph
1013.6mb 59f 64f
6:06 2 3 mph 1013.6mb 59f 64f
6:00 2 3 mph 1013.6mb 59f 64f
5:54 2
mph
1013.4mb 59f 63f
5:48  -  1 mph 1013.4mb 59f 63f
5:42  -  2 mph 1013.3mb 59f 62f
5:36 2 5 mph 1013.3mb 59f 62f
5:30 3 5 mph 1013.2mb 59f 61f
5:24  -  1 mph 1013mb 59f 61f
5:18  -  2 mph 1013mb 59f 61f
5:12 2
mph
1013mb 59f 61f
5:06 2
mph
1013mb 59f 60f
5:00 2
mph
1012.9mb 59f 61f
4:54 1 2 mph 1013mb 58f 61f
4:48 2
mph
1013.1mb 58f 61f
4:42 1 2 mph 1013mb 58f 62f
4:36  -  2 mph 1013mb 58f 62f
4:30 2 3 mph 1013mb 58f 62f
4:24 2
mph
1013.1mb 58f 63f
4:18 2
mph
1013mb 58f 63f
4:12 2 3 mph 1013.2mb 58f 63f
4:06 5 6 mph 1013.1mb 59f 63f
4:00 5 6 mph 1013.1mb 59f 63f
3:54 3 5 mph 1013mb 59f 63f
3:48 3 5 mph 1013mb 59f 63f
3:42 3 5 mph 1013.1mb 59f 63f
3:36 1 5 mph 1013.2mb 58f 64f
3:30 2 5 mph 1013.4mb 58f 64f
3:24 3 5 mph 1013.3mb 58f 64f
3:18 1 5 mph 1013.4mb 58f 64f
3:12 5 6 mph 1013.3mb 58f 64f
3:06 5 6 mph 1013.3mb 58f 64f
3:00  -  3 mph 1013.3mb 58f 64f
2:54 3 5 mph 1013.3mb 58f 64f
2:48 1 5 mph 1013.2mb 58f 64f
2:42 3 5 mph 1013.3mb 58f 64f
2:36 3 5 mph 1013.2mb 58f 64f
2:30 5 6 mph 1013.2mb 58f 64f
2:24 5 6 mph 1013.2mb 58f 65f
2:18 6
mph
1013.3mb 58f 65f
2:12 6
mph
1013.3mb 58f 65f
2:06 6
mph
1013.4mb 58f 65f
2:00 6 7 mph 1013.3mb 58f 65f
1:54 6 7 mph 1013.3mb 59f 65f
1:48 3 5 mph 1013.2mb - -
1:42 3 6 mph 1013.4mb - -
1:36 5 6 mph 1013.3mb - -
1:30 5 6 mph 1013.4mb 59f 65f
1:24 5 6 mph 1013.5mb 59f 65f
1:18 2 3 mph 1013.5mb 59f 65f
1:12 1
mph
1013.5mb 59f 64f
1:06 1 3 mph 1013.6mb 59f 64f
1:00 3
mph
1013.5mb 59f 63f
12:54 3 5 mph 1013.5mb 59f 63f
12:48 3 5 mph 1013.4mb 59f 64f
12:42 5
mph
1013.6mb 59f 66f
12:36 2
mph
1013.7mb 60f 66f
12:30  -  2 mph 1013.7mb 60f 66f
12:24 1 2 mph 1013.7mb 60f 66f
12:18 1 2 mph 1013.7mb 61f 66f
12:12 1 3 mph 1013.8mb 62f 66f
12:06 2 3 mph 1013.7mb 63f 66f
12:00  -  2 mph 1013.7mb 64f 65f
So 07/24 11:54 1 5 mph 1013.6mb 65f 66f
11:48 5 6 mph 1013.6mb 65f 65f
11:42 6
mph
1013.7mb 65f 64f
11:36 3
mph
1013.7mb 65f 65f
11:30 1
mph
1013.8mb 65f 66f
11:24  -  1 mph 1013.9mb 65f 66f
11:18  -  2 mph - 65f 66f
11:12 1 3 mph - 65f 65f
11:06 1 5 mph - 65f 65f
11:00  -  mph 1013.9mb 65f -
10:54  -  mph 1013.9mb 65f -
10:48 2 3 mph 1013.9mb 65f -
10:42 3 6 mph 1013.9mb 65f -
10:36  -  2 mph 1013.8mb 65f -
10:30 2
mph
- 65f -
10:24 2 3 mph - 65f -
10:18  -  2 mph 1013.9mb 65f 65f
10:12 2 3 mph 1014mb 65f 66f
10:06 1 7 mph 1014mb 65f 67f
10:00  -  mph - 65f 67f
9:54  -  mph - 65f 67f
9:48 2 3 mph - 65f -
9:42 3
mph
- 64f -
9:36 2
mph
- 64f -
9:30 2 3 mph 1014mb 64f -
9:24 2
mph
1014mb 64f -
9:18 2 3 mph 1013.9mb 64f -
9:12 2
mph
1013.9mb 64f -
9:06 2
mph
1013.8mb 64f -
9:00  -  3 mph - 64f 68f
8:54 1 3 mph - 64f 68f
8:48 1 2 mph 1013.6mb 64f -
8:42 2 5 mph 1013.5mb 64f -
8:36 3 5 mph 1013.4mb 64f -
8:30  -  1 mph - - -
8:24  -  2 mph - - -
8:18  -  1 mph - 64f 70f
8:12  -  1 mph - 64f 71f
8:06  -  1 mph - 63f 70f
8:00  -  mph - 63f 70f
7:54  -  mph - 63f 70f
7:48 1 3 mph - - -
7:42  -  3 mph - - -
7:36 3 5 mph - - -
7:30 2 5 mph - 62f -
7:24 5 6 mph - 62f -
7:18  -  5 mph - 62f -
7:12 3 6 mph - 62f -
7:06 6 7 mph - 62f -
7:00  -  mph - 62f 72f
6:54  -  mph - 62f 72f
6:48 10 13 mph - - -
6:42 11 13 mph - - -
6:36 7 10 mph - - -
6:30 8 11 mph - 62f -
6:24 10 13 mph - 62f -
6:18 10 13 mph 1012.2mb 62f 71f
6:12 10 13 mph 1012mb 62f 71f
6:06 11 14 mph 1012.1mb 62f 71f
6:00  -  mph - 61f 71f
5:54  -  mph - 61f 71f
5:48 11 13 mph - 61f 72f
5:42 9 13 mph - 61f 72f
5:36 13 17 mph - 61f 71f
5:30 15 17 mph 1012.2mb 61f 70f
5:24 15 20 mph 1012.2mb 61f 70f
5:18 14 17 mph 1012.1mb 61f 71f
5:12 14 18 mph 1012.1mb 61f 71f
5:06 15 17 mph 1012.1mb 61f 70f
5:00 15 17 mph 1012.1mb 61f 70f
4:54 15 18 mph 1012.1mb 61f 70f
4:48 15 17 mph 1012.2mb 61f 70f
4:42 15 17 mph 1012.2mb 61f 70f
4:36 14 16 mph 1012.2mb 61f 71f
4:30 14 18 mph 1012.2mb 61f 71f
4:24 15 17 mph 1012.2mb 61f 71f
4:18 14 16 mph 1012.1mb 61f 71f
4:12 11 16 mph 1012.2mb 60f 71f
4:06 13 15 mph 1012.2mb 60f 71f
4:00 11 15 mph 1012.2mb 60f 71f
3:54 11 16 mph 1012.1mb 60f 71f
3:48 10 15 mph 1012.2mb 60f 71f
3:42 11 15 mph 1012.3mb 60f 71f
3:36 11 15 mph 1012.3mb 60f 71f
3:30 9 11 mph 1012.3mb 60f 71f
3:24 9 14 mph 1012.4mb 60f 71f
3:18 9 11 mph 1012.4mb 60f 72f
3:12 8 11 mph 1012.4mb 60f 72f
3:06 8 11 mph 1012.4mb 60f 72f
3:00 6 10 mph 1012.4mb 60f 72f
2:54 7 11 mph 1012.4mb 60f 72f
2:48 9 10 mph 1012.5mb 60f 72f
2:42 6 9 mph 1012.5mb 60f 72f
2:36 9 10 mph 1012.5mb 60f 71f
2:30 9 10 mph 1012.4mb 60f 72f
2:24 10 11 mph 1012.3mb 59f 71f
2:18 9 11 mph 1012.4mb 59f 71f
2:12 8 11 mph 1012.4mb 59f 71f
2:06 9 11 mph 1012.4mb 59f 71f
2:00 9 13 mph 1012.4mb 59f 71f
1:54 10 13 mph 1012.5mb 59f 71f
1:48 10 14 mph 1012.5mb 59f 71f
1:42 11 14 mph 1012.4mb 59f 71f
1:36 8 10 mph 1012.4mb 58f 72f
1:30 9 11 mph 1012.5mb 58f 72f
1:24 9 11 mph 1012.5mb 58f 73f
1:18 9 10 mph 1012.6mb 58f 73f
1:12 6 10 mph 1012.5mb 58f 73f
1:06 9 11 mph 1012.4mb 58f 73f
1:00 9 11 mph 1012.4mb 58f 72f
12:54 8 11 mph 1012.4mb 58f 72f
12:48 9 10 mph 1012.4mb 58f 72f
12:42 9 10 mph 1012.4mb 58f 72f
12:36 8 13 mph 1012.4mb 58f 71f
12:30 10 13 mph 1012.3mb 58f 72f
12:24 10 13 mph 1012.4mb 58f 72f
12:18 11 14 mph 1012.4mb 58f 72f
12:12 11 14 mph 1012.4mb 58f 72f
12:06 11 13 mph 1012.4mb 58f 71f
12:00 10 11 mph 1012.3mb 58f 71f
11:54 10 13 mph 1012.2mb 59f 72f
11:48 11 13 mph 1012.2mb 60f 72f
11:42 11 13 mph 1012.1mb 60f 72f
11:36 13 15 mph 1012.2mb 61f 71f
11:30 11 14 mph 1012.3mb 61f 71f
11:24 10 11 mph 1012.1mb 61f 73f
11:18 9 10 mph 1012.1mb 61f 73f
11:12 8 10 mph 1012.1mb 61f 73f
11:06 9 11 mph 1012.1mb 60f 73f
11:00 8 9 mph 1012.1mb 60f 74f
10:54 7 8 mph 1012.1mb 60f 74f
10:48 7 8 mph 1012.2mb 60f 75f
10:42 7 8 mph 1012.3mb 60f 74f
10:36 6 7 mph 1012.3mb 60f 74f
10:30 5 8 mph 1012.3mb 60f 74f
10:24 6 8 mph 1012.1mb 60f 73f
10:18 5 7 mph 1012.1mb 60f 74f
10:12 2 5 mph 1012mb 60f 76f
10:06 5 7 mph 1012mb 60f 75f
10:00 6 8 mph 1012.1mb 60f 75f
9:54 6 8 mph 1012mb 60f 75f
9:48 5 10 mph 1012mb 59f 74f
9:42 6 8 mph 1012mb 59f 74f
9:36 7 9 mph 1012mb 59f 74f
9:30 7 8 mph 1012mb 59f 74f
9:24 6 9 mph 1012.1mb 59f 74f
9:18 6 8 mph 1012.1mb 59f 74f
9:12 6 8 mph 1012.1mb 59f 74f
9:06 2 9 mph 1012.2mb 59f 74f
9:00 7 10 mph 1012.2mb 59f 74f
8:54 7 11 mph 1012.2mb 59f 74f
8:48 6 9 mph 1012.1mb 59f 73f
8:42 6 8 mph 1012mb 59f 73f
8:36 6 7 mph 1012mb 59f 73f
8:30 6 7 mph 1012mb 59f 72f
8:24 7 9 mph 1011.9mb 59f 72f
8:18 6 7 mph 1012mb 59f 72f
8:12 6 8 mph 1012mb 59f 71f
8:06 7 8 mph 1012.1mb 59f 71f
8:00 7 8 mph 1012.1mb 59f 70f
7:54 6 8 mph 1012.1mb 59f 70f
7:48 6 9 mph 1012mb 59f 70f
7:42 6 7 mph 1012mb 59f 70f
7:36 5 8 mph 1011.9mb 59f 69f
7:30 6 9 mph 1011.9mb 59f 69f
7:24 7 10 mph 1011.8mb 59f 69f
7:18 6 10 mph 1011.8mb 59f 68f
7:12 6 10 mph 1011.8mb 59f 68f
7:06 8 10 mph 1011.7mb 59f 67f
7:00 8 10 mph 1011.7mb 59f 67f
6:54 9 13 mph 1011.7mb 59f 66f
6:48 8 13 mph 1011.6mb 58f 66f
6:42 10 13 mph 1011.4mb 58f 66f
6:36 9 11 mph 1011.3mb 58f 65f
6:30 9 13 mph 1011.3mb 58f 65f
6:24 9 13 mph 1011.4mb 58f 65f
6:18 8 13 mph 1011.4mb 58f 65f
6:12 8 13 mph 1011.3mb 58f 65f
6:06 8 13 mph 1011.3mb 58f 65f
6:00 8 13 mph 1011.2mb 58f 65f
5:54 8 15 mph 1011.1mb 58f 65f
5:48 8 11 mph 1011.1mb 58f 64f
5:42 7 11 mph 1011mb 58f 64f
5:36 6 10 mph 1011mb 58f 64f
5:30 7 10 mph 1011mb 58f 64f
5:24 7 11 mph 1011mb 58f 64f
5:18 9 13 mph 1011.1mb 58f 64f
5:12 8 11 mph 1011mb 58f 64f
5:06 7 11 mph 1010.9mb 57f 64f
5:00 7 10 mph 1010.9mb 57f 64f
4:54 7 10 mph 1010.9mb 57f 64f
4:48 8 11 mph 1010.9mb 57f 64f
4:42 8 14 mph 1010.9mb 57f 64f
4:36 9 13 mph 1010.9mb 57f 64f
4:30 9 11 mph 1010.9mb 57f 64f
4:24 8 13 mph 1010.9mb 57f 64f
4:18 8 14 mph 1010.9mb 56f 64f
4:12 7 10 mph 1010.9mb 56f 64f
4:06 8 11 mph 1010.9mb 56f 64f
4:00 8 14 mph 1010.8mb 56f 64f
3:54 8 11 mph 1010.7mb 56f 65f
3:48 8 11 mph 1010.7mb 56f 65f
3:42 9 13 mph 1010.7mb 56f 65f
3:36 7 13 mph 1010.7mb 56f 65f
3:30 8 11 mph 1010.6mb 56f 65f
3:24 8 10 mph 1010.5mb 56f 64f
3:18 8 11 mph 1010.5mb 56f 64f
3:12 8 10 mph 1010.5mb 56f 64f
3:06 7 11 mph 1010.4mb 56f 64f
3:00 8 11 mph 1010.4mb 56f 64f
2:54 6 11 mph 1010.3mb 56f 64f
2:48 6 11 mph 1010.2mb 56f 64f
2:42 7 11 mph 1010.2mb 56f 64f
2:36 9 13 mph 1010.1mb 56f 64f
2:30 8 13 mph 1010.1mb 56f 64f
2:24 7 11 mph 1010mb 56f 64f
2:18 7 13 mph 1010mb 56f 64f
2:12 8 11 mph 1009.9mb 56f 64f
2:06 8 10 mph 1010mb 56f 64f
2:00 9 11 mph 1009.9mb 56f 64f
1:54 6 9 mph 1009.9mb 56f 64f
1:48 6 9 mph 1009.9mb 56f 65f
1:42 7 10 mph 1010mb 57f 65f
1:36 8 13 mph 1010mb 57f 65f
1:30 7 13 mph 1010mb 57f 65f
1:24 7 11 mph 1009.9mb 57f 65f
1:18 8 10 mph 1010mb 57f 65f
1:12 8 11 mph 1010.1mb 57f 65f
1:06 8 11 mph 1010.1mb 58f 65f
1:00 7 10 mph 1010.1mb 58f 65f
12:54 8 11 mph 1010.1mb 58f 65f
12:48 8 10 mph 1010.2mb 58f 65f
12:42 8 11 mph 1010.2mb 58f 65f
12:36 8 10 mph 1010mb 58f 65f
12:30 8 11 mph 1009.8mb 58f 65f
12:24 9 13 mph 1009.7mb 58f 65f
12:18 9 10 mph 1009.7mb 58f 65f
12:12 9 13 mph 1009.6mb 58f 65f
12:06 8 11 mph 1009.7mb 58f 65f
12:00 8 11 mph 1009.8mb 59f 65f
Sa 07/23 11:54 8 10 mph 1009.7mb 59f 65f
11:48 8 9 mph 1009.5mb 59f 65f
11:42 8 10 mph 1009.5mb 59f 65f
11:36 9 11 mph 1009.4mb 59f 65f
11:30 9 13 mph 1009.3mb 59f 65f
11:24 9 14 mph 1009.1mb 59f 65f
11:18 10 13 mph - 61f 65f
11:12 9 11 mph - 62f 65f
11:06 9 11 mph - 63f 65f
11:00  -  mph - 65f 65f
10:54  -  mph - 65f 65f
10:48 7 8 mph 1009mb - -
10:42 6 7 mph 1009mb - -
10:36 5 6 mph 1008.9mb - -
10:30 5 6 mph 1008.9mb - -
10:24 3 7 mph 1008.8mb - -
10:18  -  mph 1008.9mb 65f 65f
10:12  -  mph 1008.9mb 65f 66f
10:06  -  mph 1008.9mb 65f 66f
10:00  -  mph - 65f 66f
9:54  -  mph - 65f 66f
9:48  -  mph - 65f -
9:42  -  mph - 65f -
9:36  -  mph - 65f -
9:30 10 14 mph - - -
9:24 9 13 mph - - -
9:18 10 14 mph - 65f -
9:12 9 13 mph - 65f -
9:06 8 15 mph - 65f -
9:00  -  mph - 65f 68f
8:54  -  mph - 64f 68f
8:48 5 10 mph 1008mb - -
8:42 5 7 mph 1007.9mb - -
8:36 5 6 mph 1007.8mb - -
8:30 3 6 mph - - -
8:24 3
mph
- - -
8:18 2 5 mph 1007.5mb 64f -
8:12 3 5 mph 1007.4mb 63f -
8:06 2 6 mph 1007.4mb 64f -
8:00  -  mph - 64f -
7:54  -  mph - 64f -
7:48 5 6 mph - - -
7:42 2 3 mph - - -
7:36 2 6 mph - - -
7:30 5 8 mph - - -
7:24 7 9 mph - - -
7:18 3 6 mph 1007.8mb 63f 68f
7:12 6 9 mph 1008.1mb 63f 69f
7:06 7 8 mph 1008.4mb 62f 69f
7:00  -  mph - 62f 69f
6:54  -  mph - 62f 69f
6:48  -  mph - 62f 70f
6:42  -  mph - 62f 69f
6:36  -  mph - 61f 68f
6:30 5 8 mph - - -
6:24 7 8 mph - - -
6:18  -  mph - 61f -
6:12  -  mph - 61f -
6:06  -  mph - 60f -
6:00  -  mph - 60f -
5:54  -  mph - 60f -
5:48 10 13 mph 1007.1mb - 73f
5:42 7 14 mph 1007.3mb - 74f
5:36 9 14 mph 1007.6mb - 74f
5:30 14 16 mph 1007.3mb 60f 74f
5:24 6 11 mph 1007mb 60f 74f
5:18 8 11 mph 1006.4mb 60f 74f
5:12 11 13 mph 1006.3mb 59f 74f
5:06 11 14 mph 1006.1mb 59f 74f
5:00 11 14 mph 1006.1mb 59f 75f
4:54 8 9 mph 1006mb 59f 75f
4:48 6 7 mph 1005.9mb 59f 75f
4:42 6 8 mph 1005.9mb 58f 74f
4:36 5 6 mph 1005.9mb 58f 73f
4:30 5 8 mph 1006.1mb 58f 73f
4:24 7
mph
1006.2mb 58f 73f
4:18 3 6 mph 1006.2mb 58f 72f
4:12 6 9 mph 1006.2mb 58f 71f
4:06 8 10 mph 1006.3mb 58f 72f
4:00 7 8 mph 1006.2mb 57f 72f
3:54 3 5 mph 1005.8mb 57f 73f
3:48 5 8 mph 1005.8mb 57f 72f
3:42 7 9 mph 1005.6mb 57f 73f
3:36 5 6 mph 1005.4mb 56f 73f
3:30 5 6 mph 1005.6mb 56f 73f
3:24 5 6 mph 1005.8mb 56f 74f
3:18 6 10 mph 1005.9mb 56f 73f
3:12 8 9 mph 1005.9mb 56f 74f
3:06 6 8 mph 1005.9mb 56f 75f
3:00 1 7 mph 1005.9mb 56f 74f
2:54 5 8 mph 1006.1mb 56f 73f
2:48 5 11 mph 1006mb 56f 74f
2:42 6 8 mph 1006.3mb 56f 74f
2:36 9 13 mph 1006mb 56f 75f
2:30 10 11 mph 1006.1mb 56f 74f
2:24 3 5 mph 1006.2mb 56f 74f
2:18 2 5 mph 1006.1mb 56f 75f
2:12 3 8 mph 1006mb 56f 74f
2:06 7 9 mph 1005.9mb 56f 72f
2:00 7 8 mph 1006mb 56f 73f
1:54 6 7 mph 1006.1mb 56f 73f
1:48 6 10 mph 1006.1mb 56f 73f
1:42 8 11 mph 1006.1mb 56f 74f
1:36 10 11 mph 1006.1mb 56f 75f
1:30 9 10 mph 1006mb 56f 75f
1:24 9 10 mph 1006.1mb 56f 74f
1:18 8 9 mph 1006.1mb 56f 73f
1:12 8 10 mph 1006.3mb 56f 73f
1:06 8 10 mph 1006.4mb 56f 73f
1:00 8 9 mph 1006.5mb 56f 73f
12:54 8 10 mph 1006.6mb 56f 74f
12:48 8 10 mph 1006.6mb 56f 74f
12:42 7 9 mph 1006.7mb 56f 74f
12:36 8 9 mph 1006.6mb 56f 74f
12:30 8 9 mph 1006.6mb 56f 74f
12:24 7 9 mph 1006.7mb 56f 74f
12:18 6 8 mph 1006.7mb 57f 74f
12:12 7 10 mph 1006.6mb 57f 75f
12:06 7 9 mph 1006.5mb 57f 75f
12:00 6 10 mph 1006.5mb 57f 75f
11:54 9 10 mph 1006.6mb 57f 74f
11:48 8 10 mph 1006.5mb 57f 74f
11:42 8 11 mph 1006.5mb 57f 74f
11:36 9 11 mph 1006.3mb 57f 74f
11:30 7 9 mph 1006.4mb 58f 74f
11:24 7 9 mph 1006.4mb 58f 73f
11:18 7 9 mph 1006.4mb 59f 75f
11:12 7 9 mph 1006.3mb 60f 75f
11:06 7 9 mph 1006.3mb 60f 75f
11:00 8 11 mph 1006.3mb 60f 73f
10:54 7 9 mph 1006.3mb 60f 74f
10:48 7 10 mph 1006.3mb 60f 74f
10:42 8 9 mph 1006.3mb 60f 74f
10:36 6 9 mph 1006.4mb 60f 74f
10:30 6 10 mph 1006.3mb 60f 74f
10:24 7 9 mph 1006.2mb 60f 73f
10:18 6 10 mph 1006.2mb 60f 76f
10:12 6 11 mph 1006.2mb 60f 76f
10:06 10 16 mph 1006.1mb 60f 81f
10:00 11 16 mph 1006.1mb 60f 81f
9:54 13 20 mph 1006mb 60f 82f
9:48 11 17 mph 1006mb 60f 82f
9:42 9 15 mph 1006mb 60f 81f
9:36 11 16 mph 1006.1mb 60f 81f
9:30 11 16 mph 1006.1mb 60f 81f
9:24 11 23 mph 1006mb 59f 81f
9:18 9 14 mph 1006mb 59f 81f
9:12 5 8 mph 1006.1mb 59f 81f
9:06 6 8 mph 1006.1mb 59f 81f
9:00 5 10 mph 1006.1mb 58f 80f
8:54 8 10 mph 1006.2mb 58f 79f
8:48 7 11 mph 1006.1mb 58f 79f
8:42 6 10 mph 1006.1mb 58f 78f
8:36 6 10 mph 1006.1mb 58f 78f
8:30 7 10 mph 1006.1mb 58f 77f
8:24 8 11 mph 1006.1mb 58f 77f
8:18 8 10 mph 1006.1mb 58f 76f
8:12 6 8 mph 1006mb 58f 76f
8:06 5 8 mph 1006.1mb 58f 76f
8:00 5 7 mph 1006.1mb 58f 76f
7:54 5 8 mph 1006.1mb 58f 75f
7:48 6 10 mph 1006mb 58f 75f
7:42 3 6 mph 1006mb 58f 75f
7:36 5 7 mph 1006.1mb 58f 75f
7:30 2 7 mph 1006mb 58f 75f
7:24 7 10 mph 1006mb 58f 74f
7:18 5 7 mph 1006mb 58f 74f
7:12 3 9 mph 1006mb 58f 74f
7:06 5 7 mph 1005.8mb 58f 73f
7:00 5 7 mph 1005.8mb 58f 72f
6:54 5 7 mph 1005.9mb 58f 71f
6:48 6 7 mph 1006mb 58f 70f
6:42 6 7 mph 1006mb 58f 69f
6:36 6 7 mph 1006mb 58f 69f
6:30 7 8 mph 1006mb 57f 68f
6:24 8
mph
1005.9mb 57f 68f
6:18 6 7 mph 1005.9mb 57f 68f
6:12 3
mph
1005.8mb 57f 69f
6:06  -  1 mph 1005.7mb 57f 69f
6:00 1 2 mph 1005.7mb 57f 67f
5:54  -  2 mph 1005.7mb 57f 67f
5:48 2 3 mph 1005.6mb 57f 67f
5:42 3 5 mph 1005.5mb 57f 68f
5:36 3 6 mph 1005.5mb 56f 68f
5:30 5 7 mph 1005.5mb 56f 68f
5:24 6 8 mph 1005.5mb 56f 68f
5:18 7 8 mph 1005.4mb 56f 68f
5:12 6 7 mph 1005.4mb 56f 67f
5:06 5 6 mph 1005.4mb 56f 67f
5:00 5
mph
1005.3mb 56f 67f
4:54 3 5 mph 1005.3mb 56f 69f
4:48 3
mph
1005.4mb 56f 70f
4:42 1
mph
1005.4mb 56f 71f
4:36  -  2 mph 1005.4mb 56f 70f
4:30 1 2 mph 1005.3mb 56f 70f
4:24  -  2 mph 1005.3mb 56f 70f
4:18 2 3 mph 1005.3mb 56f 71f
4:12 2 5 mph 1005.3mb 56f 71f
4:06 5 6 mph 1005.4mb 55f 69f
4:00 2 5 mph 1005.4mb 55f 71f
3:54 5
mph
1005.3mb 55f 71f
3:48 3
mph
1005.2mb 55f 72f
3:42 2
mph
1005.2mb 55f 72f
3:36 2 3 mph 1005.3mb 55f 72f
3:30 3 6 mph 1005.4mb 55f 73f
3:24 6 8 mph 1005.4mb 55f 72f
3:18 8 9 mph 1005.4mb 55f 72f
3:12 7 8 mph 1005.5mb 55f 73f
3:06 7 10 mph 1005.6mb 55f 73f
3:00 9 11 mph 1005.7mb 55f 73f
2:54 10 14 mph 1005.7mb 55f 74f
2:48 13 14 mph 1005.8mb 55f 74f
2:42 13 16 mph 1005.8mb 55f 74f
2:36 13 14 mph 1005.9mb 55f 74f
2:30 8 11 mph 1006mb 55f 72f
2:24 10 18 mph 1006mb 55f 72f
2:18 13 22 mph 1006.1mb 55f 71f
2:12 17 22 mph 1005.8mb 55f 69f
2:06 5
mph
1005.4mb 55f 69f
2:00 2 3 mph 1005.3mb 55f 69f
1:54 1 3 mph 1005.3mb 55f 70f
1:48 3
mph
1005.3mb 55f 70f
1:42 1 2 mph 1005.4mb 55f 69f
1:36  -  2 mph 1005.6mb 55f 70f
1:30 2 3 mph 1005.7mb 55f 70f
1:24 3 6 mph 1005.7mb 55f 70f
1:18 5
mph
1005.9mb 55f 70f
1:12 2 3 mph 1005.7mb 55f 70f
1:06 2 7 mph 1005.7mb 55f 70f
1:00 6 9 mph 1005.8mb 55f 70f
12:54 8 10 mph 1005.9mb 55f 70f
12:48 9 10 mph 1006mb 55f 70f
12:42 8 10 mph 1006mb 55f 69f
12:36 6 8 mph 1006mb 55f 67f
12:30 8 9 mph 1006mb 55f 68f
12:24 7 11 mph 1006.1mb 55f 67f
12:18 10 14 mph 1006mb 55f 68f
12:12 11 15 mph 1005.9mb 55f 68f
12:06 15 17 mph 1006mb 55f 68f
12:00 7 9 mph - 55f 69f
Fr 07/22 11:54 6 9 mph - 55f 70f
11:48 5 6 mph 1005.7mb 55f 73f
11:42 2
mph
1005.6mb 55f 75f
11:36 2
mph
1005.5mb 55f 76f
11:30 1 2 mph 1005.4mb 55f 77f
11:24 2 3 mph 1005.4mb 55f 77f
11:18 1 2 mph 1005.5mb 55f 77f
11:12 2 5 mph 1005.5mb 55f 77f
11:06 5 7 mph 1005.5mb 55f 77f
11:00  -  mph - 55f 77f
10:54  -  mph - 55f 78f
10:48 7 14 mph - - -
10:42 11 14 mph - - -
10:36 13 21 mph - - -
10:30 15 24 mph - 59f -
10:24 18 23 mph - 60f -
10:18 5 6 mph - 62f 82f
10:12 5 6 mph - 64f 83f
10:06 3
mph
- 65f 83f
10:00 3
mph
- 67f 82f
9:54 2
mph
- 67f 81f
9:48  -  1 mph - - -
9:42 1
mph
- - -
9:36  -  3 mph - - -
9:30 3 6 mph - 67f -
9:24 3 5 mph - 67f -
9:18 3 6 mph 1004.7mb 67f -
9:12 3 5 mph 1004.7mb 67f -
9:06 3 6 mph 1004.7mb 67f -
9:00  -  mph - 67f 86f
8:54  -  mph - 67f 86f
8:48 6 8 mph - - -
8:42 5 7 mph - - -
8:36 5 6 mph - - -
8:30 5 7 mph - - 87f
8:24 5 7 mph - - 87f
8:18  -  mph - 67f -
8:12  -  mph - 67f -
8:06  -  mph - 67f -
8:00  -  mph - - 88f
7:54  -  mph - - 89f
7:48 5 8 mph - 66f -
7:42 6 9 mph - 66f -
7:36 5 8 mph - 66f -
7:30 5 8 mph - 66f -
7:24 6 10 mph - 66f -
7:18 6 9 mph - 66f -
7:12 7 9 mph - 66f -
7:06 5 7 mph - 66f -
7:00 5 7 mph - 66f -
6:54 6 9 mph - 65f -
6:48 6 10 mph - 65f -
6:42 7 10 mph - 65f -
6:36 7 14 mph - 65f -
6:30 6 13 mph - 65f 92f
6:24 8 13 mph - 64f 92f
6:18  -  mph - 64f 92f
6:12  -  mph - 64f 93f
6:06  -  mph - 63f 93f
6:00  -  mph - 63f -
5:54  -  mph - 63f -
5:48 8 15 mph - 62f 93f
5:42 9 16 mph - 62f 93f
5:36 8 15 mph - 62f 93f
5:30 9 16 mph 1004.4mb 62f 93f
5:24 11 17 mph 1004.3mb 62f 93f
5:18 11 17 mph 1004.3mb 61f 93f
5:12 9 17 mph 1004.4mb 61f 93f
5:06 13 18 mph 1004.4mb 61f 93f
5:00 9 20 mph 1004.5mb 61f 93f
4:54 10 20 mph 1004.4mb 61f 93f
4:48 15 22 mph 1004.4mb 61f 93f
4:42 15 20 mph 1004.5mb 60f 93f
4:36 13 16 mph 1004.5mb 60f 93f
4:30 13 21 mph 1004.6mb 60f 93f
4:24 10 18 mph 1004.6mb 60f 93f
4:18 10 20 mph 1004.6mb 60f 93f
4:12 11 20 mph 1004.6mb 60f 94f
4:06 11 20 mph 1004.6mb 60f 94f
4:00 10 21 mph 1004.6mb 59f 94f
3:54 14 22 mph 1004.6mb 59f 94f
3:48 14 21 mph 1004.6mb 59f 94f
3:42 14 22 mph 1004.7mb 59f 94f
3:36 13 22 mph 1004.7mb 59f 94f
3:30 13 20 mph 1004.7mb 59f 94f
3:24 9 20 mph 1004.7mb 59f 93f
3:18 10 20 mph 1004.8mb 58f 93f
3:12 13 22 mph 1004.8mb 58f 93f
3:06 11 16 mph 1004.7mb 58f 93f
3:00 9 20 mph 1004.7mb 58f 93f
2:54 9 16 mph 1004.8mb 58f 93f
2:48 13 21 mph 1004.9mb 58f 92f
2:42 13 22 mph 1004.9mb 58f 93f
2:36 14 22 mph 1004.9mb 57f 92f
2:30 9 18 mph 1005.1mb 57f 93f
2:24 7 14 mph 1005.2mb 57f 92f
2:18 9 20 mph 1005.3mb 57f 92f
2:12 14 21 mph 1005.3mb 57f 92f
2:06 13 20 mph 1005.4mb 58f 91f
2:00 11 20 mph 1005.4mb 58f 91f
1:54 14 21 mph 1005.5mb 58f 91f
1:48 14 20 mph 1005.6mb 58f 91f
1:42 7 18 mph 1005.6mb 58f 92f
1:36 11 20 mph 1005.7mb 58f 91f
1:30 13 18 mph 1005.7mb 58f 90f
1:24 14 20 mph 1005.7mb 58f 90f
1:18 11 18 mph 1005.8mb 58f 90f
1:12 9 17 mph 1005.8mb 58f 89f
1:06 9 15 mph 1006mb 58f 89f
1:00 9 18 mph 1006.1mb 58f 89f
12:54 11 17 mph 1006.1mb 58f 89f
12:48 9 16 mph 1006.2mb 58f 88f
12:42 11 17 mph 1006.3mb 58f 88f
12:36 9 16 mph 1006.4mb 58f 88f
12:30 9 14 mph 1006.5mb 58f 87f